METAR Data

Data at: 2059 UTC 01 Dec 2021

METAR for:KIWI (Wiscasset Arpt, ME, US)
Text:KIWI 012053Z AUTO 20003KT 10SM OVC050 06/M02 A3006 RMK AO2 SLP179 T00561022 53021
Temperature: 5.6°C ( 42°F)
Dewpoint: -2.2°C ( 28°F) [RH = 57%]
Pressure (altimeter):30.06 inches Hg (1018.0 mb) [Sea level pressure: 1017.9 mb]
Winds:from the SSW (200 degrees) at 3 MPH (3 knots; 1.5 m/s)
Visibility:10 or more sm (16+ km)
Ceiling:5000 feet AGL
Clouds: overcast cloud deck at 5000 feet AGL
QC Flag:automated observation with no human augmentation